Astra — PB4187 — position and weather

sailwx.info

Track history (hours):
 
Tides and Currents Weather Stations Pressure Air Temp Water Temp Dewpoint Dewpoint Depression Visibility Wind Speed Wind Dir Waves Ship Positions

Astra

Last reported at 2015-Apr-26 07:33 UTC. Time now 2015-Apr-26 08:16 UTC.
Position N 49°11' E 008°23'.

Length 110 m; draft 2.4 m.

Type: Other ship. MMSI: 244650752.

Date/timePositionNaut miles runAvg speedWind from/ knotsBaromVisibWave heightAir tempDewpointWater temp
2015-Apr-26 07:33N 49°11' E 008°23'1111.1
2015-Apr-26 06:33N 49°01' E 008°18'1111.0
2015-Apr-26 05:33N 48°52' E 008°07'5 4.7
2015-Apr-26 04:33N 48°48' E 008°05'8 7.9
2015-Apr-26 03:33N 48°42' E 007°56'65 4.8
2015-Apr-25 14:05N 47°39' E 007°32'0 0.4
2015-Apr-25 13:32N 47°39' E 007°32'5 5.3
2015-Apr-25 12:33N 47°34' E 007°35'3 3.4
2015-Apr-25 11:33N 47°33' E 007°40'0 0.0
2015-Apr-25 10:33N 47°33' E 007°40'0 0.0
2015-Apr-25 09:33N 47°33' E 007°40'0 0.0
2015-Apr-25 08:33N 47°33' E 007°40'0 0.0
2015-Apr-25 07:33N 47°33' E 007°40'0 0.0
2015-Apr-25 06:33N 47°33' E 007°40'0 0.0
2015-Apr-25 05:33N 47°33' E 007°40'2 1.6
2015-Apr-25 04:33N 47°34' E 007°37'2 1.9
2015-Apr-25 03:33N 47°35' E 007°35'0 0.0
2015-Apr-25 02:33N 47°35' E 007°35'0 0.0
2015-Apr-25 01:33N 47°35' E 007°35'0 0.0
2015-Apr-25 00:33N 47°35' E 007°35'0 0.0
2015-Apr-24 23:33N 47°35' E 007°35'0 0.0
2015-Apr-24 22:33N 47°35' E 007°35'0 0.0
2015-Apr-24 21:33N 47°35' E 007°35'5 5.2
2015-Apr-24 20:33N 47°39' E 007°32'63 4.7
2015-Apr-24 07:09N 48°40' E 007°54'1 1.4
2015-Apr-24 06:08N 48°41' E 007°55'1 1.1
2015-Apr-24 05:33N 48°42' E 007°56'6 5.9
2015-Apr-24 04:31N 48°47' E 008°01'6 4.3
2015-Apr-24 03:12N 48°51' E 008°07'3 3.6
2015-Apr-24 02:28N 48°53' E 008°08'3 3.5
2015-Apr-24 01:33N 48°56' E 008°11'3 3.4
2015-Apr-24 00:33N 48°58' E 008°15'4 3.7
2015-Apr-23 23:33N 49°01' E 008°18'4 4.0
2015-Apr-23 22:33N 49°05' E 008°21'4 4.0
2015-Apr-23 21:33N 49°09' E 008°22'4 3.6
2015-Apr-23 20:33N 49°12' E 008°23'4 3.8
2015-Apr-23 19:33N 49°16' E 008°26'3 3.3
2015-Apr-23 18:33N 49°19' E 008°28'4 3.9
2015-Apr-23 17:32N 49°22' E 008°30'104 3.6
2015-Apr-22 12:25N 50°49' E 007°01'3 2.8
2015-Apr-22 11:29N 50°52' E 007°01'2 2.2
2015-Apr-22 10:33N 50°54' E 006°60'5 4.2
2015-Apr-22 09:29N 50°58' E 006°60'32 1.5
2015-Apr-21 12:25N 51°30' E 006°58'0 0.0
2015-Apr-21 10:30N 51°30' E 006°58'0 0.0
2015-Apr-21 09:30N 51°30' E 006°58'0 0.2
2015-Apr-21 07:21N 51°30' E 006°58'16 0.4
2015-Apr-19 14:29N 51°17' E 006°43'7 7.2
2015-Apr-19 13:33N 51°11' E 006°46'16 7.7
2015-Apr-19 11:29N 50°58' E 006°59'7 7.0
2015-Apr-19 10:32N 50°51' E 006°59'105 7.8
2015-Apr-18 21:06N 49°24' E 008°30'5 9.5
2015-Apr-18 20:33N 49°19' E 008°28'10 9.8
2015-Apr-18 19:33N 49°10' E 008°22'6 5.8
2015-Apr-18 18:33N 49°04' E 008°20'0 0.0
2015-Apr-18 17:33N 49°04' E 008°20'0 0.0
2015-Apr-18 16:33N 49°04' E 008°20'0 0.0
2015-Apr-18 15:33N 49°04' E 008°20'0 0.0
2015-Apr-18 14:33N 49°04' E 008°20'0 0.0
2015-Apr-18 13:33N 49°04' E 008°20'0 0.0
2015-Apr-18 12:33N 49°04' E 008°20'0 0.0
2015-Apr-18 11:33N 49°04' E 008°20'0 0.0
2015-Apr-18 10:33N 49°04' E 008°20'0 0.0
2015-Apr-18 09:33N 49°04' E 008°20'0 0.0
2015-Apr-18 08:33N 49°04' E 008°20'0 0.0
2015-Apr-18 07:33N 49°04' E 008°20'0 0.0
2015-Apr-18 06:33N 49°04' E 008°20'0 0.3
2015-Apr-18 05:33N 49°04' E 008°20'0 0.0
2015-Apr-18 04:33N 49°04' E 008°20'0 0.0
2015-Apr-18 03:33N 49°04' E 008°20'0 0.0
2015-Apr-18 02:33N 49°04' E 008°20'0 0.0
2015-Apr-18 01:33N 49°04' E 008°20'0 0.0
2015-Apr-18 00:33N 49°04' E 008°20'0 0.0
2015-Apr-17 23:33N 49°04' E 008°20'0 0.0
2015-Apr-17 22:33N 49°04' E 008°20'0 0.0
2015-Apr-17 21:33N 49°04' E 008°20'0 0.0
2015-Apr-17 20:33N 49°04' E 008°20'0 0.0
2015-Apr-17 19:33N 49°04' E 008°20'0 0.0
2015-Apr-17 18:33N 49°04' E 008°20'0 0.0
2015-Apr-17 17:33N 49°04' E 008°20'0 0.0
2015-Apr-17 16:33N 49°04' E 008°20'0 0.0
2015-Apr-17 15:33N 49°04' E 008°20'0 0.0
2015-Apr-17 14:33N 49°04' E 008°20'0 0.0
2015-Apr-17 13:33N 49°04' E 008°20'0 0.0
2015-Apr-17 12:33N 49°04' E 008°20'0 0.0
2015-Apr-17 11:33N 49°04' E 008°20'0 0.0
2015-Apr-17 10:33N 49°04' E 008°20'0 0.0
2015-Apr-17 09:33N 49°04' E 008°20'0 0.0
2015-Apr-17 08:34N 49°04' E 008°20'0 0.0
2015-Apr-17 07:33N 49°04' E 008°20'0 0.0
2015-Apr-17 06:33N 49°04' E 008°20'0 0.0
2015-Apr-17 05:33N 49°04' E 008°20'0 0.0
2015-Apr-17 04:33N 49°04' E 008°20'0 0.0
2015-Apr-17 03:33N 49°04' E 008°20'0 0.0
2015-Apr-17 02:33N 49°04' E 008°20'0 0.0
2015-Apr-17 01:33N 49°04' E 008°20'0 0.0
2015-Apr-17 00:33N 49°04' E 008°20'0 0.0
2015-Apr-16 23:33N 49°04' E 008°20'0 0.0
2015-Apr-16 22:33N 49°04' E 008°20'0 0.0
2015-Apr-16 21:33N 49°04' E 008°20'0 0.0
2015-Apr-16 20:33N 49°04' E 008°20'0 0.0
2015-Apr-16 19:33N 49°04' E 008°20'0 0.0
2015-Apr-16 18:33N 49°04' E 008°20'0 0.0
2015-Apr-16 17:33N 49°04' E 008°20'0 0.0
2015-Apr-16 16:33N 49°04' E 008°20'0 0.0
2015-Apr-16 15:33N 49°04' E 008°20'0 0.0
2015-Apr-16 14:33N 49°04' E 008°20'0 0.0
2015-Apr-16 13:33N 49°04' E 008°20'0 0.0
2015-Apr-16 12:33N 49°04' E 008°20'0 0.0
2015-Apr-16 11:33N 49°04' E 008°20'0 0.0
2015-Apr-16 10:33N 49°04' E 008°20'3 3.2
2015-Apr-16 09:33N 49°08' E 008°22'4 3.9
2015-Apr-16 08:33N 49°11' E 008°23'  
Track history (hours):
 
Tides and Currents Weather Stations Pressure Air Temp Water Temp Dewpoint Dewpoint Depression Visibility Wind Speed Wind Dir Waves Ship Positions

Astra

Last reported at 2015-Apr-26 07:33 UTC. Time now 2015-Apr-26 08:16 UTC.
Position N 49°11' E 008°23'.

Length 110 m; draft 2.4 m.

Type: Other ship. MMSI: 244650752.

Date/timePositionNaut miles runAvg speedWind from/ knotsBaromVisibWave heightAir tempDewpointWater temp
2015-Apr-26 07:33N 49°11' E 008°23'1111.1
2015-Apr-26 06:33N 49°01' E 008°18'1111.0
2015-Apr-26 05:33N 48°52' E 008°07'5 4.7
2015-Apr-26 04:33N 48°48' E 008°05'8 7.9
2015-Apr-26 03:33N 48°42' E 007°56'65 4.8
2015-Apr-25 14:05N 47°39' E 007°32'0 0.4
2015-Apr-25 13:32N 47°39' E 007°32'5 5.3
2015-Apr-25 12:33N 47°34' E 007°35'3 3.4
2015-Apr-25 11:33N 47°33' E 007°40'0 0.0
2015-Apr-25 10:33N 47°33' E 007°40'0 0.0
2015-Apr-25 09:33N 47°33' E 007°40'0 0.0
2015-Apr-25 08:33N 47°33' E 007°40'0 0.0
2015-Apr-25 07:33N 47°33' E 007°40'0 0.0
2015-Apr-25 06:33N 47°33' E 007°40'0 0.0
2015-Apr-25 05:33N 47°33' E 007°40'2 1.6
2015-Apr-25 04:33N 47°34' E 007°37'2 1.9
2015-Apr-25 03:33N 47°35' E 007°35'0 0.0
2015-Apr-25 02:33N 47°35' E 007°35'0 0.0
2015-Apr-25 01:33N 47°35' E 007°35'0 0.0
2015-Apr-25 00:33N 47°35' E 007°35'0 0.0
2015-Apr-24 23:33N 47°35' E 007°35'0 0.0
2015-Apr-24 22:33N 47°35' E 007°35'0 0.0
2015-Apr-24 21:33N 47°35' E 007°35'5 5.2
2015-Apr-24 20:33N 47°39' E 007°32'63 4.7
2015-Apr-24 07:09N 48°40' E 007°54'1 1.4
2015-Apr-24 06:08N 48°41' E 007°55'1 1.1
2015-Apr-24 05:33N 48°42' E 007°56'6 5.9
2015-Apr-24 04:31N 48°47' E 008°01'6 4.3
2015-Apr-24 03:12N 48°51' E 008°07'3 3.6
2015-Apr-24 02:28N 48°53' E 008°08'3 3.5
2015-Apr-24 01:33N 48°56' E 008°11'3 3.4
2015-Apr-24 00:33N 48°58' E 008°15'4 3.7
2015-Apr-23 23:33N 49°01' E 008°18'4 4.0
2015-Apr-23 22:33N 49°05' E 008°21'4 4.0
2015-Apr-23 21:33N 49°09' E 008°22'4 3.6
2015-Apr-23 20:33N 49°12' E 008°23'4 3.8
2015-Apr-23 19:33N 49°16' E 008°26'3 3.3
2015-Apr-23 18:33N 49°19' E 008°28'4 3.9
2015-Apr-23 17:32N 49°22' E 008°30'104 3.6
2015-Apr-22 12:25N 50°49' E 007°01'3 2.8
2015-Apr-22 11:29N 50°52' E 007°01'2 2.2
2015-Apr-22 10:33N 50°54' E 006°60'5 4.2
2015-Apr-22 09:29N 50°58' E 006°60'32 1.5
2015-Apr-21 12:25N 51°30' E 006°58'0 0.0
2015-Apr-21 10:30N 51°30' E 006°58'0 0.0
2015-Apr-21 09:30N 51°30' E 006°58'0 0.2
2015-Apr-21 07:21N 51°30' E 006°58'16 0.4
2015-Apr-19 14:29N 51°17' E 006°43'7 7.2
2015-Apr-19 13:33N 51°11' E 006°46'16 7.7
2015-Apr-19 11:29N 50°58' E 006°59'7 7.0
2015-Apr-19 10:32N 50°51' E 006°59'105 7.8
2015-Apr-18 21:06N 49°24' E 008°30'5 9.5
2015-Apr-18 20:33N 49°19' E 008°28'10 9.8
2015-Apr-18 19:33N 49°10' E 008°22'6 5.8
2015-Apr-18 18:33N 49°04' E 008°20'0 0.0
2015-Apr-18 17:33N 49°04' E 008°20'0 0.0
2015-Apr-18 16:33N 49°04' E 008°20'0 0.0
2015-Apr-18 15:33N 49°04' E 008°20'0 0.0
2015-Apr-18 14:33N 49°04' E 008°20'0 0.0
2015-Apr-18 13:33N 49°04' E 008°20'0 0.0
2015-Apr-18 12:33N 49°04' E 008°20'0 0.0
2015-Apr-18 11:33N 49°04' E 008°20'0 0.0
2015-Apr-18 10:33N 49°04' E 008°20'0 0.0
2015-Apr-18 09:33N 49°04' E 008°20'0 0.0
2015-Apr-18 08:33N 49°04' E 008°20'0 0.0
2015-Apr-18 07:33N 49°04' E 008°20'0 0.0
2015-Apr-18 06:33N 49°04' E 008°20'0 0.3
2015-Apr-18 05:33N 49°04' E 008°20'0 0.0
2015-Apr-18 04:33N 49°04' E 008°20'0 0.0
2015-Apr-18 03:33N 49°04' E 008°20'0 0.0
2015-Apr-18 02:33N 49°04' E 008°20'0 0.0
2015-Apr-18 01:33N 49°04' E 008°20'0 0.0
2015-Apr-18 00:33N 49°04' E 008°20'0 0.0
2015-Apr-17 23:33N 49°04' E 008°20'0 0.0
2015-Apr-17 22:33N 49°04' E 008°20'0 0.0
2015-Apr-17 21:33N 49°04' E 008°20'0 0.0
2015-Apr-17 20:33N 49°04' E 008°20'0 0.0
2015-Apr-17 19:33N 49°04' E 008°20'0 0.0
2015-Apr-17 18:33N 49°04' E 008°20'0 0.0
2015-Apr-17 17:33N 49°04' E 008°20'0 0.0
2015-Apr-17 16:33N 49°04' E 008°20'0 0.0
2015-Apr-17 15:33N 49°04' E 008°20'0 0.0
2015-Apr-17 14:33N 49°04' E 008°20'0 0.0
2015-Apr-17 13:33N 49°04' E 008°20'0 0.0
2015-Apr-17 12:33N 49°04' E 008°20'0 0.0
2015-Apr-17 11:33N 49°04' E 008°20'0 0.0
2015-Apr-17 10:33N 49°04' E 008°20'0 0.0
2015-Apr-17 09:33N 49°04' E 008°20'0 0.0
2015-Apr-17 08:34N 49°04' E 008°20'0 0.0
2015-Apr-17 07:33N 49°04' E 008°20'0 0.0
2015-Apr-17 06:33N 49°04' E 008°20'0 0.0
2015-Apr-17 05:33N 49°04' E 008°20'0 0.0
2015-Apr-17 04:33N 49°04' E 008°20'0 0.0
2015-Apr-17 03:33N 49°04' E 008°20'0 0.0
2015-Apr-17 02:33N 49°04' E 008°20'0 0.0
2015-Apr-17 01:33N 49°04' E 008°20'0 0.0
2015-Apr-17 00:33N 49°04' E 008°20'0 0.0
2015-Apr-16 23:33N 49°04' E 008°20'0 0.0
2015-Apr-16 22:33N 49°04' E 008°20'0 0.0
2015-Apr-16 21:33N 49°04' E 008°20'0 0.0
2015-Apr-16 20:33N 49°04' E 008°20'0 0.0
2015-Apr-16 19:33N 49°04' E 008°20'0 0.0
2015-Apr-16 18:33N 49°04' E 008°20'0 0.0
2015-Apr-16 17:33N 49°04' E 008°20'0 0.0
2015-Apr-16 16:33N 49°04' E 008°20'0 0.0
2015-Apr-16 15:33N 49°04' E 008°20'0 0.0
2015-Apr-16 14:33N 49°04' E 008°20'0 0.0
2015-Apr-16 13:33N 49°04' E 008°20'0 0.0
2015-Apr-16 12:33N 49°04' E 008°20'0 0.0
2015-Apr-16 11:33N 49°04' E 008°20'0 0.0
2015-Apr-16 10:33N 49°04' E 008°20'3 3.2
2015-Apr-16 09:33N 49°08' E 008°22'4 3.9
2015-Apr-16 08:33N 49°11' E 008°23'  

Dump ship's entire track history